createdAt,value
2022-09-11T00:02:11.290Z,30.7
2022-09-11T00:08:06.188Z,28.8
2022-09-11T00:13:57.142Z,30.2
2022-09-11T00:19:53.764Z,27.7
2022-09-11T00:25:49.208Z,28.7
2022-09-11T00:31:40.881Z,30.3
2022-09-11T00:37:31.428Z,26.7
2022-09-11T00:43:24.424Z,31.1
2022-09-11T00:49:15.744Z,28.4
2022-09-11T00:55:06.772Z,30.5
2022-09-11T01:00:58.212Z,32.5
2022-09-11T01:06:49.328Z,31
2022-09-11T01:12:40.269Z,38.2
2022-09-11T01:18:31.016Z,36.5
2022-09-11T01:24:22.333Z,35.3
2022-09-11T01:30:16.473Z,36.1
2022-09-11T01:36:08.039Z,37.9
2022-09-11T01:41:59.122Z,41.7
2022-09-11T01:47:50.697Z,43.8
2022-09-11T01:53:41.283Z,47.8
2022-09-11T01:59:36.004Z,49
2022-09-11T02:05:27.165Z,44
2022-09-11T02:11:19.344Z,49
2022-09-11T02:17:11.710Z,51.1
2022-09-11T02:23:02.474Z,55.4
2022-09-11T02:28:53.106Z,56.7
2022-09-11T02:34:43.679Z,58
2022-09-11T02:40:35.230Z,61.2
2022-09-11T02:46:26.381Z,62.8
2022-09-11T02:52:17.151Z,67.3
2022-09-11T02:58:07.020Z,73.2
2022-09-11T03:03:56.540Z,76.8
2022-09-11T03:09:50.142Z,80.8
2022-09-11T03:15:40.341Z,75.4
2022-09-11T03:21:31.085Z,76.3
2022-09-11T03:27:21.289Z,84.5
2022-09-11T03:33:12.629Z,77.1
2022-09-11T03:39:02.684Z,81.7
2022-09-11T03:44:53.230Z,79.4
2022-09-11T03:50:45.223Z,85.8
2022-09-11T03:56:35.870Z,91
2022-09-11T04:02:26.609Z,91.8
2022-09-11T04:08:17.712Z,96.2
2022-09-11T04:14:10.118Z,96.2
2022-09-11T04:20:00.509Z,94
2022-09-11T04:25:50.910Z,97.6
2022-09-11T04:31:45.824Z,98.9
2022-09-11T04:37:37.952Z,101.5
2022-09-11T08:51:42.981Z,56.1
2022-09-11T08:57:49.853Z,58.1
2022-09-11T09:04:09.572Z,57.9
2022-09-11T09:10:32.902Z,56.9
2022-09-11T09:41:12.321Z,61.2
2022-09-11T09:53:01.031Z,53.1
2022-09-11T09:58:59.460Z,50.5
2022-09-11T10:29:52.488Z,45
2022-09-11T10:35:54.954Z,45.1
2022-09-11T10:41:50.773Z,47.2
2022-09-11T10:47:59.652Z,48.6
2022-09-11T11:05:44.414Z,55.8
2022-09-11T11:23:25.397Z,48.4
2022-09-11T11:29:22.647Z,42.2
2022-09-11T11:48:02.446Z,42.3
2022-09-11T13:35:43.441Z,22.6
2022-09-11T13:41:32.349Z,22.9
2022-09-11T13:47:23.115Z,19.5
2022-09-11T13:53:13.838Z,24.7
2022-09-11T14:00:14.062Z,22.9
2022-09-11T14:06:06.210Z,20.3
2022-09-11T14:11:55.947Z,23.9
2022-09-11T14:17:47.656Z,21.9
2022-09-11T14:23:47.776Z,20.8
2022-09-11T14:29:36.953Z,20.2
2022-09-11T14:35:29.532Z,18.4
2022-09-11T14:41:19.514Z,23.8
2022-09-11T14:47:10.570Z,20.7
2022-09-11T14:53:02.015Z,17.2
2022-09-11T14:58:52.351Z,21.6
2022-09-11T15:04:43.223Z,18.1
2022-09-11T15:10:32.860Z,21.7
2022-09-11T15:16:23.230Z,20.9
2022-09-11T15:22:12.462Z,17.4
2022-09-11T15:28:01.791Z,17.9
2022-09-11T15:33:52.120Z,16.2
2022-09-11T15:39:41.768Z,15.9
2022-09-11T15:45:32.103Z,16
2022-09-11T15:51:21.803Z,19.9
2022-09-11T15:57:11.650Z,18.4
2022-09-11T16:03:02.266Z,15.6
2022-09-11T16:08:53.201Z,16.4
2022-09-11T16:14:44.247Z,17.1
2022-09-11T16:20:34.921Z,17.6
2022-09-11T16:26:27.676Z,17.7
2022-09-11T16:32:17.968Z,17.8
2022-09-11T16:38:08.267Z,16.5
2022-09-11T16:43:58.693Z,17.2
2022-09-11T16:50:11.661Z,17.6
2022-09-11T16:55:59.805Z,16
2022-09-11T17:01:49.440Z,16
2022-09-11T17:07:39.407Z,16.7
2022-09-11T17:13:28.504Z,17.1
2022-09-11T17:19:19.443Z,15.8
2022-09-11T17:25:10.239Z,17.2
2022-09-11T17:31:00.221Z,16.6
2022-09-11T17:36:49.886Z,17
2022-09-11T17:42:40.237Z,20.1
2022-09-11T17:48:32.308Z,18.1
2022-09-11T17:54:22.678Z,18
2022-09-11T18:00:12.713Z,16.3
2022-09-11T18:06:03.239Z,16.9
2022-09-11T18:11:53.605Z,19.2
2022-09-11T18:17:42.544Z,18.8
2022-09-11T18:23:34.519Z,18.5
2022-09-11T18:29:24.684Z,23.2
2022-09-11T18:35:15.230Z,18.5
2022-09-11T18:41:05.846Z,19
2022-09-11T18:46:56.360Z,18.9
2022-09-11T18:52:47.846Z,20
2022-09-11T18:58:37.782Z,19.6
2022-09-11T19:04:28.294Z,20.7
2022-09-11T19:10:18.481Z,17.1
2022-09-11T19:16:08.246Z,18.4
2022-09-11T19:22:00.202Z,20
2022-09-11T19:27:50.931Z,18.5
2022-09-11T19:33:40.945Z,19.6
2022-09-11T19:39:31.706Z,18.8
2022-09-11T19:45:22.683Z,19.1
2022-09-11T19:51:13.692Z,19.6
2022-09-11T19:57:05.139Z,20.6
2022-09-11T20:02:54.800Z,19.2
2022-09-11T20:08:44.843Z,21.7
2022-09-11T20:14:38.359Z,20.8
2022-09-11T20:20:31.727Z,24.7
2022-09-11T20:26:22.632Z,24.8
2022-09-11T20:38:53.014Z,23.8
2022-09-11T20:45:27.717Z,23.8
2022-09-11T20:51:50.606Z,21.1
2022-09-11T20:58:00.635Z,22.7
2022-09-11T21:04:13.308Z,24.3
2022-09-11T21:16:42.223Z,27.7
2022-09-11T21:22:34.726Z,26.6
2022-09-11T21:28:54.334Z,27.6
2022-09-11T21:35:00.304Z,25.2
2022-09-11T21:41:21.181Z,25.9
2022-09-11T21:47:44.725Z,26.8
2022-09-11T22:00:22.858Z,26.2
2022-09-11T22:06:21.957Z,25.6
2022-09-11T22:12:17.088Z,28.6
2022-09-11T22:18:24.803Z,27.2
2022-09-11T22:24:18.039Z,26.7
2022-09-11T22:30:35.419Z,28.2
2022-09-11T22:36:42.989Z,27.5
2022-09-11T22:42:33.866Z,27
2022-09-11T22:48:34.130Z,27
2022-09-11T23:00:33.441Z,28.9
2022-09-11T23:06:32.759Z,27.5
2022-09-11T23:12:38.135Z,30.6
2022-09-11T23:18:30.597Z,30.7
2022-09-11T23:24:29.626Z,33.5
2022-09-11T23:30:31.698Z,27.6
2022-09-11T23:36:53.505Z,29.6
2022-09-11T23:42:59.951Z,28.3
2022-09-11T23:49:26.433Z,32
2022-09-11T23:55:29.638Z,34.8
